sensor_id;sensor_type;location;lat;lon;timestamp;P1;durP1;ratioP1;P2;durP2;ratioP2
22270;SDS011;11304;53.520;10.104;2023-07-22T00:00:47;10.20;;;7.00;;
22270;SDS011;11304;53.520;10.104;2023-07-22T00:03:13;8.68;;;6.32;;
22270;SDS011;11304;53.520;10.104;2023-07-22T00:05:40;10.05;;;7.20;;
22270;SDS011;11304;53.520;10.104;2023-07-22T00:08:06;10.35;;;7.13;;
22270;SDS011;11304;53.520;10.104;2023-07-22T00:10:32;10.80;;;7.18;;
22270;SDS011;11304;53.520;10.104;2023-07-22T00:12:58;8.43;;;6.38;;
22270;SDS011;11304;53.520;10.104;2023-07-22T00:15:24;10.65;;;7.40;;
22270;SDS011;11304;53.520;10.104;2023-07-22T00:17:50;10.00;;;6.97;;
22270;SDS011;11304;53.520;10.104;2023-07-22T00:20:17;9.35;;;6.65;;
22270;SDS011;11304;53.520;10.104;2023-07-22T00:22:45;10.02;;;7.30;;
22270;SDS011;11304;53.520;10.104;2023-07-22T00:25:11;7.30;;;5.97;;
22270;SDS011;11304;53.520;10.104;2023-07-22T00:27:38;9.10;;;7.03;;
22270;SDS011;11304;53.520;10.104;2023-07-22T00:30:05;10.88;;;6.90;;
22270;SDS011;11304;53.520;10.104;2023-07-22T00:32:31;11.23;;;7.03;;
22270;SDS011;11304;53.520;10.104;2023-07-22T00:34:58;10.93;;;6.90;;
22270;SDS011;11304;53.520;10.104;2023-07-22T00:37:24;11.63;;;7.25;;
22270;SDS011;11304;53.520;10.104;2023-07-22T00:39:50;11.55;;;6.88;;
22270;SDS011;11304;53.520;10.104;2023-07-22T00:42:16;9.52;;;6.88;;
22270;SDS011;11304;53.520;10.104;2023-07-22T00:44:42;10.30;;;7.50;;
22270;SDS011;11304;53.520;10.104;2023-07-22T00:47:09;12.50;;;6.68;;
22270;SDS011;11304;53.520;10.104;2023-07-22T00:49:35;11.98;;;7.65;;
22270;SDS011;11304;53.520;10.104;2023-07-22T00:52:02;11.18;;;7.47;;
22270;SDS011;11304;53.520;10.104;2023-07-22T00:54:29;12.07;;;8.70;;
22270;SDS011;11304;53.520;10.104;2023-07-22T00:56:56;11.85;;;7.35;;
22270;SDS011;11304;53.520;10.104;2023-07-22T00:59:23;11.60;;;8.00;;
22270;SDS011;11304;53.520;10.104;2023-07-22T01:01:49;12.38;;;7.30;;
22270;SDS011;11304;53.520;10.104;2023-07-22T01:04:15;12.63;;;7.40;;
22270;SDS011;11304;53.520;10.104;2023-07-22T01:06:44;9.32;;;7.38;;
22270;SDS011;11304;53.520;10.104;2023-07-22T01:09:11;11.23;;;7.82;;
22270;SDS011;11304;53.520;10.104;2023-07-22T01:11:38;13.75;;;7.63;;
22270;SDS011;11304;53.520;10.104;2023-07-22T01:14:04;11.30;;;6.65;;
22270;SDS011;11304;53.520;10.104;2023-07-22T01:16:37;13.50;;;7.25;;
22270;SDS011;11304;53.520;10.104;2023-07-22T01:19:04;10.07;;;6.78;;
22270;SDS011;11304;53.520;10.104;2023-07-22T01:21:30;14.20;;;7.38;;
22270;SDS011;11304;53.520;10.104;2023-07-22T01:23:57;12.30;;;7.15;;
22270;SDS011;11304;53.520;10.104;2023-07-22T01:26:23;8.57;;;5.93;;
22270;SDS011;11304;53.520;10.104;2023-07-22T01:28:49;13.00;;;6.93;;
22270;SDS011;11304;53.520;10.104;2023-07-22T01:31:15;12.63;;;7.30;;
22270;SDS011;11304;53.520;10.104;2023-07-22T01:33:41;11.35;;;7.20;;
22270;SDS011;11304;53.520;10.104;2023-07-22T01:36:07;12.02;;;6.57;;
22270;SDS011;11304;53.520;10.104;2023-07-22T01:38:34;14.02;;;7.32;;
22270;SDS011;11304;53.520;10.104;2023-07-22T01:41:00;11.45;;;6.82;;
22270;SDS011;11304;53.520;10.104;2023-07-22T01:43:27;11.40;;;5.90;;
22270;SDS011;11304;53.520;10.104;2023-07-22T01:45:53;13.20;;;6.82;;
22270;SDS011;11304;53.520;10.104;2023-07-22T01:48:19;11.93;;;6.75;;
22270;SDS011;11304;53.520;10.104;2023-07-22T01:50:47;16.67;;;7.18;;
22270;SDS011;11304;53.520;10.104;2023-07-22T01:53:13;12.95;;;6.75;;
22270;SDS011;11304;53.520;10.104;2023-07-22T01:55:39;11.50;;;7.10;;
22270;SDS011;11304;53.520;10.104;2023-07-22T01:58:05;9.50;;;6.05;;
22270;SDS011;11304;53.520;10.104;2023-07-22T02:00:31;11.57;;;6.20;;
22270;SDS011;11304;53.520;10.104;2023-07-22T02:02:57;12.75;;;6.53;;
22270;SDS011;11304;53.520;10.104;2023-07-22T02:05:23;14.05;;;6.80;;
22270;SDS011;11304;53.520;10.104;2023-07-22T02:07:51;11.65;;;7.05;;
22270;SDS011;11304;53.520;10.104;2023-07-22T02:10:17;14.93;;;7.40;;
22270;SDS011;11304;53.520;10.104;2023-07-22T02:12:43;15.10;;;7.15;;
22270;SDS011;11304;53.520;10.104;2023-07-22T02:15:09;14.23;;;7.22;;
22270;SDS011;11304;53.520;10.104;2023-07-22T02:17:35;12.20;;;7.40;;
22270;SDS011;11304;53.520;10.104;2023-07-22T02:20:01;12.52;;;6.97;;
22270;SDS011;11304;53.520;10.104;2023-07-22T02:22:29;13.05;;;7.15;;
22270;SDS011;11304;53.520;10.104;2023-07-22T02:24:55;16.20;;;7.65;;
22270;SDS011;11304;53.520;10.104;2023-07-22T02:27:21;13.40;;;7.85;;
22270;SDS011;11304;53.520;10.104;2023-07-22T02:29:48;14.70;;;8.57;;
22270;SDS011;11304;53.520;10.104;2023-07-22T02:32:14;13.40;;;6.90;;
22270;SDS011;11304;53.520;10.104;2023-07-22T02:34:40;14.05;;;8.18;;
22270;SDS011;11304;53.520;10.104;2023-07-22T02:37:06;12.13;;;7.47;;
22270;SDS011;11304;53.520;10.104;2023-07-22T02:39:32;13.32;;;7.50;;
22270;SDS011;11304;53.520;10.104;2023-07-22T02:41:58;12.70;;;6.97;;
22270;SDS011;11304;53.520;10.104;2023-07-22T02:44:24;12.85;;;7.05;;
22270;SDS011;11304;53.520;10.104;2023-07-22T02:46:50;12.02;;;7.65;;
22270;SDS011;11304;53.520;10.104;2023-07-22T02:49:16;16.02;;;7.97;;
22270;SDS011;11304;53.520;10.104;2023-07-22T02:51:43;16.08;;;8.98;;
22270;SDS011;11304;53.520;10.104;2023-07-22T02:54:09;16.10;;;8.80;;
22270;SDS011;11304;53.520;10.104;2023-07-22T02:56:35;15.07;;;7.80;;
22270;SDS011;11304;53.520;10.104;2023-07-22T02:59:01;13.00;;;7.97;;
22270;SDS011;11304;53.520;10.104;2023-07-22T03:01:27;17.40;;;8.00;;
22270;SDS011;11304;53.520;10.104;2023-07-22T03:03:54;15.50;;;9.52;;
22270;SDS011;11304;53.520;10.104;2023-07-22T03:06:20;19.80;;;8.15;;
22270;SDS011;11304;53.520;10.104;2023-07-22T03:08:46;16.23;;;8.63;;
22270;SDS011;11304;53.520;10.104;2023-07-22T03:11:13;13.57;;;8.57;;
22270;SDS011;11304;53.520;10.104;2023-07-22T03:13:39;18.85;;;9.30;;
22270;SDS011;11304;53.520;10.104;2023-07-22T03:16:05;13.50;;;8.95;;
22270;SDS011;11304;53.520;10.104;2023-07-22T03:18:33;14.02;;;8.80;;
22270;SDS011;11304;53.520;10.104;2023-07-22T03:20:59;16.25;;;9.38;;
22270;SDS011;11304;53.520;10.104;2023-07-22T03:23:25;16.85;;;9.40;;
22270;SDS011;11304;53.520;10.104;2023-07-22T03:25:51;15.70;;;7.90;;
22270;SDS011;11304;53.520;10.104;2023-07-22T03:28:17;14.57;;;8.43;;
22270;SDS011;11304;53.520;10.104;2023-07-22T03:30:43;15.20;;;8.93;;
22270;SDS011;11304;53.520;10.104;2023-07-22T03:33:10;20.60;;;9.48;;
22270;SDS011;11304;53.520;10.104;2023-07-22T03:35:36;14.00;;;8.40;;
22270;SDS011;11304;53.520;10.104;2023-07-22T03:38:02;13.65;;;8.80;;
22270;SDS011;11304;53.520;10.104;2023-07-22T03:40:29;16.67;;;8.52;;
22270;SDS011;11304;53.520;10.104;2023-07-22T03:42:56;19.40;;;8.73;;
22270;SDS011;11304;53.520;10.104;2023-07-22T03:45:23;16.73;;;8.55;;
22270;SDS011;11304;53.520;10.104;2023-07-22T03:47:53;17.95;;;9.05;;
22270;SDS011;11304;53.520;10.104;2023-07-22T03:50:19;13.68;;;7.78;;
22270;SDS011;11304;53.520;10.104;2023-07-22T03:52:45;12.07;;;8.05;;
22270;SDS011;11304;53.520;10.104;2023-07-22T03:55:11;13.70;;;8.32;;
22270;SDS011;11304;53.520;10.104;2023-07-22T03:57:38;16.52;;;8.00;;
22270;SDS011;11304;53.520;10.104;2023-07-22T04:00:05;14.85;;;8.05;;
22270;SDS011;11304;53.520;10.104;2023-07-22T04:02:35;16.42;;;8.50;;
22270;SDS011;11304;53.520;10.104;2023-07-22T04:05:02;16.83;;;8.40;;
22270;SDS011;11304;53.520;10.104;2023-07-22T04:07:28;15.93;;;8.20;;
22270;SDS011;11304;53.520;10.104;2023-07-22T04:09:54;14.45;;;7.88;;
22270;SDS011;11304;53.520;10.104;2023-07-22T04:12:20;14.05;;;7.97;;
22270;SDS011;11304;53.520;10.104;2023-07-22T04:14:46;14.70;;;7.70;;
22270;SDS011;11304;53.520;10.104;2023-07-22T04:17:12;14.68;;;7.53;;
22270;SDS011;11304;53.520;10.104;2023-07-22T04:19:40;14.25;;;7.53;;
22270;SDS011;11304;53.520;10.104;2023-07-22T04:22:07;13.70;;;7.75;;
22270;SDS011;11304;53.520;10.104;2023-07-22T04:24:33;14.10;;;7.85;;
22270;SDS011;11304;53.520;10.104;2023-07-22T04:27:00;14.30;;;8.30;;
22270;SDS011;11304;53.520;10.104;2023-07-22T04:29:26;16.92;;;7.70;;
22270;SDS011;11304;53.520;10.104;2023-07-22T04:31:56;12.45;;;7.85;;
22270;SDS011;11304;53.520;10.104;2023-07-22T04:34:23;15.77;;;7.93;;
22270;SDS011;11304;53.520;10.104;2023-07-22T04:36:50;14.63;;;8.55;;
22270;SDS011;11304;53.520;10.104;2023-07-22T04:39:16;13.93;;;7.97;;
22270;SDS011;11304;53.520;10.104;2023-07-22T04:41:42;16.25;;;8.95;;
22270;SDS011;11304;53.520;10.104;2023-07-22T04:44:09;13.98;;;8.70;;
22270;SDS011;11304;53.520;10.104;2023-07-22T04:46:35;18.05;;;9.13;;
22270;SDS011;11304;53.520;10.104;2023-07-22T04:49:01;13.02;;;9.35;;
22270;SDS011;11304;53.520;10.104;2023-07-22T04:51:27;15.30;;;8.45;;
22270;SDS011;11304;53.520;10.104;2023-07-22T04:53:53;14.35;;;8.40;;
22270;SDS011;11304;53.520;10.104;2023-07-22T04:56:19;13.38;;;7.47;;
22270;SDS011;11304;53.520;10.104;2023-07-22T04:58:46;15.77;;;8.00;;
22270;SDS011;11304;53.520;10.104;2023-07-22T05:01:12;13.50;;;7.75;;
22270;SDS011;11304;53.520;10.104;2023-07-22T05:03:38;14.38;;;7.68;;
22270;SDS011;11304;53.520;10.104;2023-07-22T05:06:05;12.90;;;8.52;;
22270;SDS011;11304;53.520;10.104;2023-07-22T05:08:33;13.70;;;7.63;;
22270;SDS011;11304;53.520;10.104;2023-07-22T05:10:59;13.05;;;8.38;;
22270;SDS011;11304;53.520;10.104;2023-07-22T05:13:25;15.40;;;8.63;;
22270;SDS011;11304;53.520;10.104;2023-07-22T05:15:51;15.20;;;8.70;;
22270;SDS011;11304;53.520;10.104;2023-07-22T05:18:18;16.70;;;7.80;;
22270;SDS011;11304;53.520;10.104;2023-07-22T05:20:44;17.95;;;8.38;;
22270;SDS011;11304;53.520;10.104;2023-07-22T05:23:10;14.13;;;8.90;;
22270;SDS011;11304;53.520;10.104;2023-07-22T05:25:37;13.82;;;7.75;;
22270;SDS011;11304;53.520;10.104;2023-07-22T05:28:03;10.82;;;7.25;;
22270;SDS011;11304;53.520;10.104;2023-07-22T05:30:29;15.27;;;7.78;;
22270;SDS011;11304;53.520;10.104;2023-07-22T05:32:55;12.18;;;7.38;;
22270;SDS011;11304;53.520;10.104;2023-07-22T05:35:21;10.93;;;6.88;;
22270;SDS011;11304;53.520;10.104;2023-07-22T05:37:47;15.73;;;7.45;;
22270;SDS011;11304;53.520;10.104;2023-07-22T05:40:14;11.13;;;6.75;;
22270;SDS011;11304;53.520;10.104;2023-07-22T05:42:40;11.15;;;7.68;;
22270;SDS011;11304;53.520;10.104;2023-07-22T05:45:06;13.13;;;8.10;;
22270;SDS011;11304;53.520;10.104;2023-07-22T05:47:32;12.30;;;8.00;;
22270;SDS011;11304;53.520;10.104;2023-07-22T05:49:58;13.05;;;8.30;;
22270;SDS011;11304;53.520;10.104;2023-07-22T05:52:24;15.02;;;7.85;;
22270;SDS011;11304;53.520;10.104;2023-07-22T05:54:50;13.63;;;7.15;;
22270;SDS011;11304;53.520;10.104;2023-07-22T05:57:17;11.52;;;6.10;;
22270;SDS011;11304;53.520;10.104;2023-07-22T05:59:43;9.20;;;5.90;;
22270;SDS011;11304;53.520;10.104;2023-07-22T06:02:09;9.75;;;6.10;;
22270;SDS011;11304;53.520;10.104;2023-07-22T06:04:35;11.55;;;6.00;;
22270;SDS011;11304;53.520;10.104;2023-07-22T06:07:01;8.82;;;5.50;;
22270;SDS011;11304;53.520;10.104;2023-07-22T06:09:27;12.00;;;5.30;;
22270;SDS011;11304;53.520;10.104;2023-07-22T06:11:54;8.70;;;5.03;;
22270;SDS011;11304;53.520;10.104;2023-07-22T06:14:20;16.38;;;5.20;;
22270;SDS011;11304;53.520;10.104;2023-07-22T06:16:47;10.45;;;5.40;;
22270;SDS011;11304;53.520;10.104;2023-07-22T06:19:13;11.82;;;4.90;;
22270;SDS011;11304;53.520;10.104;2023-07-22T06:21:39;9.10;;;5.05;;
22270;SDS011;11304;53.520;10.104;2023-07-22T06:24:05;7.65;;;4.68;;
22270;SDS011;11304;53.520;10.104;2023-07-22T06:26:31;10.45;;;5.03;;
22270;SDS011;11304;53.520;10.104;2023-07-22T06:28:57;9.30;;;4.00;;
22270;SDS011;11304;53.520;10.104;2023-07-22T06:31:23;10.88;;;4.22;;
22270;SDS011;11304;53.520;10.104;2023-07-22T06:33:50;7.60;;;4.55;;
22270;SDS011;11304;53.520;10.104;2023-07-22T06:36:16;9.82;;;4.50;;
22270;SDS011;11304;53.520;10.104;2023-07-22T06:38:42;10.43;;;4.65;;
22270;SDS011;11304;53.520;10.104;2023-07-22T06:41:08;8.73;;;4.10;;
22270;SDS011;11304;53.520;10.104;2023-07-22T06:43:34;9.90;;;3.80;;
22270;SDS011;11304;53.520;10.104;2023-07-22T06:46:01;9.07;;;3.72;;
22270;SDS011;11304;53.520;10.104;2023-07-22T06:48:27;7.72;;;4.20;;
22270;SDS011;11304;53.520;10.104;2023-07-22T06:50:53;7.72;;;3.85;;
22270;SDS011;11304;53.520;10.104;2023-07-22T06:53:19;7.50;;;3.75;;
22270;SDS011;11304;53.520;10.104;2023-07-22T06:55:48;8.98;;;3.80;;
22270;SDS011;11304;53.520;10.104;2023-07-22T06:58:15;8.20;;;3.40;;
22270;SDS011;11304;53.520;10.104;2023-07-22T07:00:41;7.53;;;3.17;;
22270;SDS011;11304;53.520;10.104;2023-07-22T07:03:08;10.73;;;3.60;;
22270;SDS011;11304;53.520;10.104;2023-07-22T07:05:34;4.53;;;2.97;;
22270;SDS011;11304;53.520;10.104;2023-07-22T07:08:00;9.07;;;3.15;;
22270;SDS011;11304;53.520;10.104;2023-07-22T07:10:26;5.32;;;2.80;;
22270;SDS011;11304;53.520;10.104;2023-07-22T07:12:52;6.60;;;3.20;;
22270;SDS011;11304;53.520;10.104;2023-07-22T07:15:18;5.45;;;2.70;;
22270;SDS011;11304;53.520;10.104;2023-07-22T07:17:44;3.90;;;2.10;;
22270;SDS011;11304;53.520;10.104;2023-07-22T07:20:10;9.02;;;2.55;;
22270;SDS011;11304;53.520;10.104;2023-07-22T07:22:36;7.55;;;2.65;;
22270;SDS011;11304;53.520;10.104;2023-07-22T07:25:02;4.28;;;2.30;;
22270;SDS011;11304;53.520;10.104;2023-07-22T07:27:29;7.75;;;2.65;;
22270;SDS011;11304;53.520;10.104;2023-07-22T07:29:55;7.72;;;2.55;;
22270;SDS011;11304;53.520;10.104;2023-07-22T07:32:21;4.20;;;2.47;;
22270;SDS011;11304;53.520;10.104;2023-07-22T07:34:49;7.10;;;2.67;;
22270;SDS011;11304;53.520;10.104;2023-07-22T07:37:15;6.25;;;2.25;;
22270;SDS011;11304;53.520;10.104;2023-07-22T07:39:41;5.80;;;2.53;;
22270;SDS011;11304;53.520;10.104;2023-07-22T07:42:07;8.20;;;2.60;;
22270;SDS011;11304;53.520;10.104;2023-07-22T07:44:33;4.75;;;2.08;;
22270;SDS011;11304;53.520;10.104;2023-07-22T07:46:59;3.90;;;1.80;;
22270;SDS011;11304;53.520;10.104;2023-07-22T07:49:25;8.30;;;2.50;;
22270;SDS011;11304;53.520;10.104;2023-07-22T07:51:51;4.45;;;2.25;;
22270;SDS011;11304;53.520;10.104;2023-07-22T07:54:18;4.72;;;2.30;;
22270;SDS011;11304;53.520;10.104;2023-07-22T07:56:44;6.43;;;2.30;;
22270;SDS011;11304;53.520;10.104;2023-07-22T07:59:10;8.88;;;2.90;;
22270;SDS011;11304;53.520;10.104;2023-07-22T08:01:36;4.47;;;2.42;;
22270;SDS011;11304;53.520;10.104;2023-07-22T08:04:06;3.90;;;2.50;;
22270;SDS011;11304;53.520;10.104;2023-07-22T08:06:32;10.73;;;2.92;;
22270;SDS011;11304;53.520;10.104;2023-07-22T08:08:59;4.50;;;2.58;;
22270;SDS011;11304;53.520;10.104;2023-07-22T08:11:25;5.68;;;2.90;;
22270;SDS011;11304;53.520;10.104;2023-07-22T08:13:51;6.38;;;2.70;;
22270;SDS011;11304;53.520;10.104;2023-07-22T08:16:17;6.80;;;2.80;;
22270;SDS011;11304;53.520;10.104;2023-07-22T08:18:43;5.90;;;2.72;;
22270;SDS011;11304;53.520;10.104;2023-07-22T08:21:12;5.97;;;2.65;;
22270;SDS011;11304;53.520;10.104;2023-07-22T08:23:38;4.75;;;2.17;;
22270;SDS011;11304;53.520;10.104;2023-07-22T08:26:05;4.13;;;1.85;;
22270;SDS011;11304;53.520;10.104;2023-07-22T08:28:31;3.85;;;1.75;;
22270;SDS011;11304;53.520;10.104;2023-07-22T08:30:57;3.53;;;2.00;;
22270;SDS011;11304;53.520;10.104;2023-07-22T08:33:25;3.37;;;1.80;;
22270;SDS011;11304;53.520;10.104;2023-07-22T08:35:51;4.55;;;1.65;;
22270;SDS011;11304;53.520;10.104;2023-07-22T08:38:18;3.35;;;1.60;;
22270;SDS011;11304;53.520;10.104;2023-07-22T08:40:44;4.00;;;1.70;;
22270;SDS011;11304;53.520;10.104;2023-07-22T08:43:10;5.00;;;1.67;;
22270;SDS011;11304;53.520;10.104;2023-07-22T08:45:37;3.83;;;1.58;;
22270;SDS011;11304;53.520;10.104;2023-07-22T08:50:42;1.98;;;1.20;;
22270;SDS011;11304;53.520;10.104;2023-07-22T08:53:10;3.40;;;1.40;;
22270;SDS011;11304;53.520;10.104;2023-07-22T08:55:36;4.68;;;1.60;;
22270;SDS011;11304;53.520;10.104;2023-07-22T08:58:05;3.33;;;1.30;;
22270;SDS011;11304;53.520;10.104;2023-07-22T09:00:34;5.32;;;1.15;;
22270;SDS011;11304;53.520;10.104;2023-07-22T09:03:00;6.80;;;1.65;;
22270;SDS011;11304;53.520;10.104;2023-07-22T09:05:27;3.67;;;1.50;;
22270;SDS011;11304;53.520;10.104;2023-07-22T09:07:55;2.78;;;1.20;;
22270;SDS011;11304;53.520;10.104;2023-07-22T09:10:21;1.85;;;1.00;;
22270;SDS011;11304;53.520;10.104;2023-07-22T09:12:48;3.90;;;1.40;;
22270;SDS011;11304;53.520;10.104;2023-07-22T09:15:14;4.32;;;1.40;;
22270;SDS011;11304;53.520;10.104;2023-07-22T09:17:42;5.30;;;1.60;;
22270;SDS011;11304;53.520;10.104;2023-07-22T09:20:08;3.22;;;1.35;;
22270;SDS011;11304;53.520;10.104;2023-07-22T09:22:42;3.20;;;1.40;;
22270;SDS011;11304;53.520;10.104;2023-07-22T09:25:27;10.32;;;1.52;;
22270;SDS011;11304;53.520;10.104;2023-07-22T09:27:58;3.80;;;1.40;;
22270;SDS011;11304;53.520;10.104;2023-07-22T09:30:25;4.25;;;1.25;;
22270;SDS011;11304;53.520;10.104;2023-07-22T09:32:52;2.17;;;1.38;;
22270;SDS011;11304;53.520;10.104;2023-07-22T09:35:19;5.18;;;1.30;;
22270;SDS011;11304;53.520;10.104;2023-07-22T09:37:45;2.45;;;1.40;;
22270;SDS011;11304;53.520;10.104;2023-07-22T09:42:48;6.03;;;1.40;;
22270;SDS011;11304;53.520;10.104;2023-07-22T09:45:14;3.17;;;1.23;;
22270;SDS011;11304;53.520;10.104;2023-07-22T09:47:41;3.72;;;1.25;;
22270;SDS011;11304;53.520;10.104;2023-07-22T09:50:10;4.50;;;1.27;;
22270;SDS011;11304;53.520;10.104;2023-07-22T09:52:46;2.30;;;1.23;;
22270;SDS011;11304;53.520;10.104;2023-07-22T09:55:14;2.78;;;1.40;;
22270;SDS011;11304;53.520;10.104;2023-07-22T09:57:43;2.67;;;1.23;;
22270;SDS011;11304;53.520;10.104;2023-07-22T10:00:11;3.60;;;1.20;;
22270;SDS011;11304;53.520;10.104;2023-07-22T10:05:05;5.85;;;1.60;;
22270;SDS011;11304;53.520;10.104;2023-07-22T10:07:33;4.82;;;1.52;;
22270;SDS011;11304;53.520;10.104;2023-07-22T10:09:59;2.08;;;1.40;;
22270;SDS011;11304;53.520;10.104;2023-07-22T10:12:25;1.90;;;1.20;;
22270;SDS011;11304;53.520;10.104;2023-07-22T10:14:53;2.35;;;1.20;;
22270;SDS011;11304;53.520;10.104;2023-07-22T10:17:19;4.00;;;1.60;;
22270;SDS011;11304;53.520;10.104;2023-07-22T10:19:46;3.20;;;1.55;;
22270;SDS011;11304;53.520;10.104;2023-07-22T10:22:12;2.65;;;1.65;;
22270;SDS011;11304;53.520;10.104;2023-07-22T10:24:39;3.58;;;1.70;;
22270;SDS011;11304;53.520;10.104;2023-07-22T10:27:05;1.92;;;1.40;;
22270;SDS011;11304;53.520;10.104;2023-07-22T10:29:32;2.92;;;1.42;;
22270;SDS011;11304;53.520;10.104;2023-07-22T10:31:59;3.17;;;1.60;;
22270;SDS011;11304;53.520;10.104;2023-07-22T10:34:25;4.10;;;1.65;;
22270;SDS011;11304;53.520;10.104;2023-07-22T10:36:51;5.78;;;1.50;;
22270;SDS011;11304;53.520;10.104;2023-07-22T10:39:27;2.42;;;1.48;;
22270;SDS011;11304;53.520;10.104;2023-07-22T10:42:00;4.47;;;1.77;;
22270;SDS011;11304;53.520;10.104;2023-07-22T10:44:30;2.47;;;1.58;;
22270;SDS011;11304;53.520;10.104;2023-07-22T10:46:57;2.83;;;1.60;;
22270;SDS011;11304;53.520;10.104;2023-07-22T10:49:23;5.20;;;1.60;;
22270;SDS011;11304;53.520;10.104;2023-07-22T10:51:50;2.42;;;1.40;;
22270;SDS011;11304;53.520;10.104;2023-07-22T10:54:35;1.48;;;1.35;;
22270;SDS011;11304;53.520;10.104;2023-07-22T10:57:02;2.10;;;1.55;;
22270;SDS011;11304;53.520;10.104;2023-07-22T10:59:32;2.78;;;1.42;;
22270;SDS011;11304;53.520;10.104;2023-07-22T11:01:59;2.60;;;1.40;;
22270;SDS011;11304;53.520;10.104;2023-07-22T11:04:26;3.00;;;1.40;;
22270;SDS011;11304;53.520;10.104;2023-07-22T11:07:03;2.83;;;1.80;;
22270;SDS011;11304;53.520;10.104;2023-07-22T11:14:30;6.03;;;2.10;;
22270;SDS011;11304;53.520;10.104;2023-07-22T11:16:57;3.22;;;2.00;;
22270;SDS011;11304;53.520;10.104;2023-07-22T11:19:24;3.15;;;1.90;;
22270;SDS011;11304;53.520;10.104;2023-07-22T11:21:51;4.00;;;2.10;;
22270;SDS011;11304;53.520;10.104;2023-07-22T11:24:17;4.00;;;2.40;;
22270;SDS011;11304;53.520;10.104;2023-07-22T11:26:45;4.28;;;2.28;;
22270;SDS011;11304;53.520;10.104;2023-07-22T11:29:11;4.13;;;2.35;;
22270;SDS011;11304;53.520;10.104;2023-07-22T11:31:41;4.10;;;3.70;;
22270;SDS011;11304;53.520;10.104;2023-07-22T11:34:21;5.78;;;2.92;;
22270;SDS011;11304;53.520;10.104;2023-07-22T11:36:48;3.72;;;3.10;;
22270;SDS011;11304;53.520;10.104;2023-07-22T11:39:15;4.40;;;3.65;;
22270;SDS011;11304;53.520;10.104;2023-07-22T11:41:41;5.63;;;3.00;;
22270;SDS011;11304;53.520;10.104;2023-07-22T11:44:08;5.97;;;2.88;;
22270;SDS011;11304;53.520;10.104;2023-07-22T11:46:48;3.78;;;2.75;;
22270;SDS011;11304;53.520;10.104;2023-07-22T11:49:24;5.15;;;2.60;;
22270;SDS011;11304;53.520;10.104;2023-07-22T11:51:50;3.97;;;3.00;;
22270;SDS011;11304;53.520;10.104;2023-07-22T11:54:16;3.75;;;2.72;;
22270;SDS011;11304;53.520;10.104;2023-07-22T11:56:43;4.22;;;3.00;;
22270;SDS011;11304;53.520;10.104;2023-07-22T11:59:09;4.00;;;3.00;;
22270;SDS011;11304;53.520;10.104;2023-07-22T12:01:35;4.68;;;2.80;;
22270;SDS011;11304;53.520;10.104;2023-07-22T12:04:01;5.80;;;2.55;;
22270;SDS011;11304;53.520;10.104;2023-07-22T12:06:27;4.68;;;3.42;;
22270;SDS011;11304;53.520;10.104;2023-07-22T12:08:53;4.22;;;3.15;;
22270;SDS011;11304;53.520;10.104;2023-07-22T12:11:20;6.85;;;3.80;;
22270;SDS011;11304;53.520;10.104;2023-07-22T12:13:46;5.95;;;3.42;;
22270;SDS011;11304;53.520;10.104;2023-07-22T12:16:20;5.10;;;3.75;;
22270;SDS011;11304;53.520;10.104;2023-07-22T12:18:47;6.22;;;3.58;;
22270;SDS011;11304;53.520;10.104;2023-07-22T12:21:14;5.40;;;4.03;;
22270;SDS011;11304;53.520;10.104;2023-07-22T12:23:41;5.97;;;3.67;;
22270;SDS011;11304;53.520;10.104;2023-07-22T12:26:07;8.75;;;5.80;;
22270;SDS011;11304;53.520;10.104;2023-07-22T12:28:33;9.55;;;6.10;;
22270;SDS011;11304;53.520;10.104;2023-07-22T12:31:00;7.40;;;4.57;;
22270;SDS011;11304;53.520;10.104;2023-07-22T12:33:26;7.22;;;4.00;;
22270;SDS011;11304;53.520;10.104;2023-07-22T12:35:55;5.88;;;4.40;;
22270;SDS011;11304;53.520;10.104;2023-07-22T12:38:22;7.75;;;4.78;;
22270;SDS011;11304;53.520;10.104;2023-07-22T12:40:48;5.35;;;4.20;;
22270;SDS011;11304;53.520;10.104;2023-07-22T12:43:14;5.47;;;4.00;;
22270;SDS011;11304;53.520;10.104;2023-07-22T12:45:40;6.68;;;4.43;;
22270;SDS011;11304;53.520;10.104;2023-07-22T12:48:06;6.18;;;4.63;;
22270;SDS011;11304;53.520;10.104;2023-07-22T12:50:33;7.55;;;4.95;;
22270;SDS011;11304;53.520;10.104;2023-07-22T12:52:59;6.25;;;4.88;;
22270;SDS011;11304;53.520;10.104;2023-07-22T12:55:25;6.50;;;4.60;;
22270;SDS011;11304;53.520;10.104;2023-07-22T12:57:52;7.22;;;4.90;;
22270;SDS011;11304;53.520;10.104;2023-07-22T13:00:19;6.80;;;4.97;;
22270;SDS011;11304;53.520;10.104;2023-07-22T13:02:46;7.38;;;4.90;;
22270;SDS011;11304;53.520;10.104;2023-07-22T13:07:38;8.00;;;5.35;;
22270;SDS011;11304;53.520;10.104;2023-07-22T13:10:04;8.02;;;5.22;;
22270;SDS011;11304;53.520;10.104;2023-07-22T13:12:34;7.25;;;5.38;;
22270;SDS011;11304;53.520;10.104;2023-07-22T13:15:00;6.05;;;4.82;;
22270;SDS011;11304;53.520;10.104;2023-07-22T13:17:26;8.90;;;5.03;;
22270;SDS011;11304;53.520;10.104;2023-07-22T13:19:53;6.82;;;5.05;;
22270;SDS011;11304;53.520;10.104;2023-07-22T13:22:19;6.78;;;5.50;;
22270;SDS011;11304;53.520;10.104;2023-07-22T13:24:45;10.88;;;5.60;;
22270;SDS011;11304;53.520;10.104;2023-07-22T13:29:38;6.65;;;5.15;;
22270;SDS011;11304;53.520;10.104;2023-07-22T13:32:04;7.78;;;5.38;;
22270;SDS011;11304;53.520;10.104;2023-07-22T13:34:31;7.97;;;5.97;;
22270;SDS011;11304;53.520;10.104;2023-07-22T13:36:57;7.47;;;5.63;;
22270;SDS011;11304;53.520;10.104;2023-07-22T13:39:23;8.73;;;6.13;;
22270;SDS011;11304;53.520;10.104;2023-07-22T13:41:49;10.27;;;6.35;;
22270;SDS011;11304;53.520;10.104;2023-07-22T13:44:16;7.32;;;5.60;;
22270;SDS011;11304;53.520;10.104;2023-07-22T13:46:42;10.02;;;5.30;;
22270;SDS011;11304;53.520;10.104;2023-07-22T13:49:08;7.50;;;4.93;;
22270;SDS011;11304;53.520;10.104;2023-07-22T13:51:34;13.55;;;7.40;;
22270;SDS011;11304;53.520;10.104;2023-07-22T13:54:00;11.57;;;6.70;;
22270;SDS011;11304;53.520;10.104;2023-07-22T13:56:26;9.20;;;6.68;;
22270;SDS011;11304;53.520;10.104;2023-07-22T13:58:55;8.85;;;7.07;;
22270;SDS011;11304;53.520;10.104;2023-07-22T14:01:23;10.65;;;7.25;;
22270;SDS011;11304;53.520;10.104;2023-07-22T14:03:49;10.85;;;7.25;;
22270;SDS011;11304;53.520;10.104;2023-07-22T14:06:15;12.07;;;7.05;;
22270;SDS011;11304;53.520;10.104;2023-07-22T14:08:41;8.32;;;6.30;;
22270;SDS011;11304;53.520;10.104;2023-07-22T14:11:07;10.50;;;6.85;;
22270;SDS011;11304;53.520;10.104;2023-07-22T14:13:34;10.25;;;6.63;;
22270;SDS011;11304;53.520;10.104;2023-07-22T14:16:01;8.75;;;6.45;;
22270;SDS011;11304;53.520;10.104;2023-07-22T14:18:27;9.32;;;6.72;;
22270;SDS011;11304;53.520;10.104;2023-07-22T14:20:53;6.93;;;5.88;;
22270;SDS011;11304;53.520;10.104;2023-07-22T14:23:19;7.90;;;5.53;;
22270;SDS011;11304;53.520;10.104;2023-07-22T14:25:45;9.90;;;5.68;;
22270;SDS011;11304;53.520;10.104;2023-07-22T14:28:11;5.30;;;4.57;;
22270;SDS011;11304;53.520;10.104;2023-07-22T14:30:38;6.57;;;4.85;;
22270;SDS011;11304;53.520;10.104;2023-07-22T14:33:04;6.53;;;4.60;;
22270;SDS011;11304;53.520;10.104;2023-07-22T14:35:30;6.07;;;4.10;;
22270;SDS011;11304;53.520;10.104;2023-07-22T14:37:57;6.32;;;4.60;;
22270;SDS011;11304;53.520;10.104;2023-07-22T14:40:25;6.25;;;4.60;;
22270;SDS011;11304;53.520;10.104;2023-07-22T14:42:51;6.32;;;4.53;;